Time;durP1;ratioP1;P1;durP2;ratioP2;P2;SDS_P1;SDS_P2;PMS_P1;PMS_P2;Temp;Humidity;BMP_temperature;BMP_pressure;BME280_temperature;BME280_humidity;BME280_pressure;Samples;Min_cycle;Max_cycle;Signal;HPM_P1;HPM_P2
2022/10/21 00:01:05;;;;;;;3.78;2.00;;;;;;;6.25;100.00;99762.94;5034437;28;20052;-50
2022/10/21 00:03:30;;;;;;;4.47;3.20;;;;;;;6.25;100.00;99770.03;5041109;28;20374;-50
2022/10/21 00:05:56;;;;;;;5.38;2.53;;;;;;;6.24;100.00;99771.81;5040999;28;20037;-48
2022/10/21 00:08:21;;;;;;;5.30;2.80;;;;;;;6.24;100.00;99765.75;5036143;28;20025;-48
2022/10/21 00:10:52;;;;;;;5.00;2.47;;;;;;;6.24;100.00;99774.44;5037823;28;20032;-49
2022/10/21 00:13:17;;;;;;;7.47;2.40;;;;;;;6.21;100.00;99777.44;5036604;28;20038;-49
2022/10/21 00:15:43;;;;;;;5.35;1.95;;;;;;;6.21;100.00;99774.81;5038173;28;20041;-49
2022/10/21 00:18:08;;;;;;;3.47;2.35;;;;;;;6.23;100.00;99772.03;5036249;28;20034;-48
2022/10/21 00:20:33;;;;;;;2.47;2.13;;;;;;;6.20;100.00;99773.19;5035167;28;20063;-51
2022/10/21 00:22:59;;;;;;;3.53;1.85;;;;;;;6.18;100.00;99766.47;5041971;28;20411;-48
2022/10/21 00:25:24;;;;;;;5.55;2.42;;;;;;;6.15;100.00;99766.84;5036139;28;20381;-51
2022/10/21 00:27:49;;;;;;;1.88;1.33;;;;;;;6.11;100.00;99775.06;5040549;28;20052;-49
2022/10/21 00:30:15;;;;;;;5.50;2.38;;;;;;;6.12;100.00;99768.00;5045103;28;20187;-48
2022/10/21 00:32:40;;;;;;;3.80;1.60;;;;;;;6.11;100.00;99769.81;5047472;28;20382;-51
2022/10/21 00:35:06;;;;;;;1.35;1.25;;;;;;;6.11;100.00;99772.44;5042004;28;20053;-47
2022/10/21 00:37:31;;;;;;;2.63;2.30;;;;;;;6.14;100.00;99773.91;5038035;28;20075;-48
2022/10/21 00:39:57;;;;;;;4.47;1.65;;;;;;;6.13;100.00;99769.63;5041126;28;20558;-52
2022/10/21 00:42:38;;;;;;;4.63;1.90;;;;;;;6.17;100.00;99773.56;5044730;28;20033;-48
2022/10/21 00:45:03;;;;;;;1.75;1.27;;;;;;;6.19;100.00;99768.91;5042665;28;20086;-49
2022/10/21 00:47:30;;;;;;;8.05;2.03;;;;;;;6.25;100.00;99773.47;5040636;28;20026;-49
2022/10/21 00:50:02;;;;;;;4.40;2.38;;;;;;;6.27;100.00;99771.47;5041022;28;20084;-48
2022/10/21 00:52:32;;;;;;;4.22;1.58;;;;;;;6.28;100.00;99751.22;5040691;28;20059;-47
2022/10/21 00:55:03;;;;;;;2.20;1.65;;;;;;;6.29;100.00;99744.97;5042006;28;20041;-47
2022/10/21 00:57:32;;;;;;;4.88;2.75;;;;;;;6.27;100.00;99742.53;5044801;28;20474;-47
2022/10/21 01:00:03;;;;;;;8.52;1.98;;;;;;;6.30;100.00;99736.09;5040689;28;20033;-48
2022/10/21 01:02:29;;;;;;;7.07;3.67;;;;;;;6.30;100.00;99726.38;5038757;28;20121;-50
2022/10/21 01:04:58;;;;;;;4.10;2.13;;;;;;;6.34;100.00;99711.81;5036872;28;20406;-48
2022/10/21 01:07:24;;;;;;;3.38;1.60;;;;;;;6.37;100.00;99702.72;5033522;28;20092;-50
2022/10/21 01:09:49;;;;;;;4.72;2.13;;;;;;;6.45;100.00;99697.38;5042342;28;20543;-51
2022/10/21 01:12:31;;;;;;;5.47;3.45;;;;;;;6.51;100.00;99698.47;5039856;28;20108;-49
2022/10/21 01:15:23;;;;;;;2.70;2.17;;;;;;;6.56;100.00;99693.47;5031636;28;20038;-48
2022/10/21 01:17:59;;;;;;;5.28;3.08;;;;;;;6.65;100.00;99681.81;5037611;28;20757;-54
2022/10/21 01:20:55;;;;;;;3.75;2.75;;;;;;;6.81;100.00;99683.41;5041778;28;20033;-49
2022/10/21 01:23:26;;;;;;;4.97;2.30;;;;;;;6.86;100.00;99696.84;5037860;28;20025;-48
2022/10/21 01:26:13;;;;;;;3.30;2.53;;;;;;;6.94;100.00;99698.56;5034827;28;20041;-49
2022/10/21 01:28:53;;;;;;;3.90;2.83;;;;;;;7.01;100.00;99703.91;5043036;28;20060;-48
2022/10/21 01:31:30;;;;;;;4.85;2.15;;;;;;;7.05;100.00;99695.44;5036659;28;20391;-49
2022/10/21 01:34:45;;;;;;;3.78;2.28;;;;;;;7.11;100.00;99692.06;5045983;28;20164;-49
2022/10/21 01:37:24;;;;;;;3.08;1.88;;;;;;;7.19;100.00;99670.81;5019154;28;20033;-49
2022/10/21 01:39:56;;;;;;;3.20;2.38;;;;;;;7.16;100.00;99663.31;5033302;28;20441;-48
2022/10/21 01:42:46;;;;;;;3.25;2.60;;;;;;;7.11;100.00;99663.06;5038352;28;20433;-48
2022/10/21 01:45:20;;;;;;;2.80;1.90;;;;;;;7.05;100.00;99661.19;5035134;28;20116;-48
2022/10/21 01:47:52;;;;;;;2.60;2.30;;;;;;;7.06;100.00;99654.06;5035110;28;20433;-48
2022/10/21 01:50:24;;;;;;;;;;;;;;;7.08;100.00;99649.44;5040840;28;20377;-48
2022/10/21 01:52:52;;;;;;;1.73;1.17;;;;;;;7.05;100.00;99644.53;5035531;28;19917;-49
2022/10/21 01:55:21;;;;;;;5.22;2.38;;;;;;;7.05;100.00;99648.00;5039676;28;20215;-48
2022/10/21 01:57:54;;;;;;;2.17;1.88;;;;;;;7.02;100.00;99645.72;5034840;28;20088;-47
2022/10/21 02:00:20;;;;;;;3.28;2.08;;;;;;;6.97;100.00;99648.13;5044055;28;20041;-51
2022/10/21 02:02:47;;;;;;;3.40;2.83;;;;;;;6.97;100.00;99648.94;5050089;28;20090;-51
2022/10/21 02:05:17;;;;;;;4.60;2.78;;;;;;;6.96;100.00;99639.38;5042222;28;20108;-51
2022/10/21 02:07:43;;;;;;;2.60;2.13;;;;;;;6.94;100.00;99643.22;5050100;28;20064;-50
2022/10/21 02:10:09;;;;;;;7.38;2.65;;;;;;;6.97;100.00;99637.59;5049999;28;20068;-50
2022/10/21 02:12:37;;;;;;;5.55;1.95;;;;;;;6.99;100.00;99635.56;5048172;28;20024;-49
2022/10/21 02:15:07;;;;;;;4.43;1.70;;;;;;;7.03;100.00;99622.84;5036229;28;20096;-50
2022/10/21 02:17:36;;;;;;;4.15;3.10;;;;;;;7.01;100.00;99617.72;5037814;28;20943;-52
2022/10/21 02:20:06;;;;;;;1.55;1.45;;;;;;;7.02;100.00;99614.09;5046753;28;20030;-51
2022/10/21 02:22:33;;;;;;;2.00;1.83;;;;;;;7.03;100.00;99620.19;5038388;28;20112;-47
2022/10/21 02:25:21;;;;;;;5.40;2.65;;;;;;;7.05;100.00;99619.00;5051129;28;20033;-48
2022/10/21 02:27:47;;;;;;;2.83;1.75;;;;;;;7.04;100.00;99611.28;5040608;28;20049;-53
2022/10/21 02:30:13;;;;;;;3.65;1.73;;;;;;;7.05;100.00;99611.09;5051562;28;20037;-49
2022/10/21 02:33:26;;;;;;;4.53;1.67;;;;;;;7.08;100.00;99610.72;5031644;28;20030;-48
2022/10/21 02:36:10;;;;;;;2.75;1.58;;;;;;;7.08;100.00;99617.81;5043978;28;20446;-48
2022/10/21 02:38:42;;;;;;;5.00;1.58;;;;;;;7.07;100.00;99626.69;5043374;28;20482;-51
2022/10/21 02:41:10;;;;;;;4.82;2.40;;;;;;;7.08;100.00;99631.00;5046143;28;20029;-51
2022/10/21 02:43:40;;;;;;;2.63;1.63;;;;;;;7.13;100.00;99618.88;5042032;28;20482;-48
2022/10/21 02:46:08;;;;;;;4.68;1.85;;;;;;;7.15;100.00;99619.50;5039144;28;20094;-48
2022/10/21 02:48:35;;;;;;;9.52;2.65;;;;;;;7.19;100.00;99618.09;5044973;28;20129;-48
2022/10/21 02:51:03;;;;;;;2.63;1.90;;;;;;;7.25;100.00;99598.06;5039638;28;20035;-47
2022/10/21 02:53:29;;;;;;;7.43;3.13;;;;;;;7.28;100.00;99579.25;5038380;28;20037;-48
2022/10/21 02:55:54;;;;;;;6.20;3.03;;;;;;;7.27;100.00;99580.22;5040896;28;20291;-48
2022/10/21 02:58:20;;;;;;;2.35;2.15;;;;;;;7.32;100.00;99559.38;5041161;28;20107;-49
2022/10/21 03:00:45;;;;;;;2.42;1.98;;;;;;;7.37;100.00;99551.72;5040997;28;20079;-49
2022/10/21 03:03:10;;;;;;;2.30;2.10;;;;;;;7.41;100.00;99539.78;5041202;28;20470;-50
2022/10/21 03:05:36;;;;;;;3.22;2.70;;;;;;;7.43;100.00;99536.94;5036603;28;20391;-53
2022/10/21 03:08:01;;;;;;;7.20;2.58;;;;;;;7.43;100.00;99552.75;5041450;28;20425;-50
2022/10/21 03:10:26;;;;;;;3.63;2.53;;;;;;;7.46;100.00;99539.19;5048002;28;20029;-48
2022/10/21 03:12:52;;;;;;;2.33;2.13;;;;;;;7.54;100.00;99549.59;5052810;28;20034;-49
2022/10/21 03:15:18;;;;;;;2.65;2.15;;;;;;;7.58;100.00;99561.38;5049244;28;20098;-49
2022/10/21 03:17:43;;;;;;;4.93;3.38;;;;;;;7.61;100.00;99573.34;5046602;28;20029;-50
2022/10/21 03:20:09;;;;;;;3.20;2.60;;;;;;;7.58;100.00;99584.31;5042820;28;20048;-50
2022/10/21 03:22:34;;;;;;;6.32;2.05;;;;;;;7.63;100.00;99585.34;5039910;28;20413;-48
2022/10/21 03:24:59;;;;;;;3.08;2.03;;;;;;;7.79;100.00;99576.31;5039713;28;20030;-50
2022/10/21 03:27:25;;;;;;;7.85;2.88;;;;;;;7.91;100.00;99579.22;5042956;28;20088;-49
2022/10/21 03:29:51;;;;;;;2.13;1.77;;;;;;;7.98;100.00;99568.72;5048512;28;20137;-50
2022/10/21 03:32:16;;;;;;;3.78;2.05;;;;;;;8.06;100.00;99566.69;5039445;28;20029;-50
2022/10/21 03:34:41;;;;;;;4.20;1.98;;;;;;;8.15;100.00;99566.53;5039226;28;20060;-53
2022/10/21 03:37:07;;;;;;;2.75;1.63;;;;;;;8.22;100.00;99572.66;5050685;28;20442;-50
2022/10/21 03:39:32;;;;;;;4.07;2.60;;;;;;;8.29;100.00;99570.84;5041906;28;20037;-54
2022/10/21 03:41:57;;;;;;;10.13;3.90;;;;;;;8.30;100.00;99569.84;5039184;28;20056;-49
2022/10/21 03:44:23;;;;;;;2.85;2.17;;;;;;;8.38;100.00;99564.38;5036070;28;20026;-48
2022/10/21 03:46:48;;;;;;;3.22;2.13;;;;;;;8.50;100.00;99568.09;5038887;28;20030;-49
2022/10/21 03:49:14;;;;;;;3.72;1.83;;;;;;;8.61;100.00;99557.97;5044747;28;20108;-52
2022/10/21 03:51:39;;;;;;;3.67;2.33;;;;;;;8.76;100.00;99544.56;5041891;28;20031;-49
2022/10/21 03:54:05;;;;;;;7.75;3.65;;;;;;;8.83;100.00;99540.91;5038603;28;20111;-49
2022/10/21 03:56:31;;;;;;;3.72;2.67;;;;;;;8.87;100.00;99536.03;5035460;28;20110;-51
2022/10/21 03:58:56;;;;;;;8.98;2.15;;;;;;;8.91;100.00;99522.22;5041386;28;20081;-50
2022/10/21 04:01:22;;;;;;;3.53;2.88;;;;;;;8.94;100.00;99516.50;5039803;28;20446;-52
2022/10/21 04:03:47;;;;;;;1.92;1.30;;;;;;;8.97;100.00;99522.41;5045430;28;20021;-52
2022/10/21 04:06:12;;;;;;;3.20;2.35;;;;;;;9.02;100.00;99533.19;5039493;28;20032;-48
2022/10/21 04:08:38;;;;;;;7.50;3.22;;;;;;;9.21;100.00;99542.94;5049114;28;20067;-49
2022/10/21 04:11:03;;;;;;;3.55;1.50;;;;;;;9.26;100.00;99534.38;5038967;28;20017;-48
2022/10/21 04:13:30;;;;;;;5.13;2.42;;;;;;;9.28;100.00;99535.81;5036519;28;20183;-52
2022/10/21 04:16:00;;;;;;;3.53;1.75;;;;;;;9.41;100.00;99523.59;5035157;28;20067;-48
2022/10/21 04:18:26;;;;;;;6.45;2.13;;;;;;;9.49;100.00;99524.16;5043320;28;20742;-50
2022/10/21 04:20:51;;;;;;;14.38;3.30;;;;;;;9.55;100.00;99522.53;5038756;28;20104;-49
2022/10/21 04:23:16;;;;;;;3.67;2.47;;;;;;;9.57;100.00;99531.88;5031795;28;20486;-50
2022/10/21 04:25:45;;;;;;;4.78;2.85;;;;;;;9.64;100.00;99525.78;5039642;28;20032;-51
2022/10/21 04:28:11;;;;;;;2.70;2.30;;;;;;;9.75;100.00;99525.94;5048773;28;20421;-50
2022/10/21 04:30:37;;;;;;;7.50;2.25;;;;;;;9.82;100.00;99524.06;5045990;28;20033;-51
2022/10/21 04:33:02;;;;;;;6.15;1.85;;;;;;;9.76;100.00;99530.22;5040362;28;20025;-52
2022/10/21 04:35:28;;;;;;;6.28;2.60;;;;;;;9.77;100.00;99526.53;5036808;28;20026;-50
2022/10/21 04:37:53;;;;;;;3.30;1.60;;;;;;;9.79;100.00;99513.91;5043343;28;20075;-55
2022/10/21 04:40:19;;;;;;;7.18;3.05;;;;;;;9.88;100.00;99516.31;5044617;28;20025;-50
2022/10/21 04:42:48;;;;;;;3.45;2.53;;;;;;;10.02;100.00;99517.91;5040841;28;20490;-50
2022/10/21 04:45:14;;;;;;;4.88;3.40;;;;;;;10.11;100.00;99508.66;5046144;28;20040;-51
2022/10/21 04:47:39;;;;;;;5.15;3.33;;;;;;;10.02;100.00;99502.00;5042405;28;20032;-54
2022/10/21 04:50:05;;;;;;;3.55;3.22;;;;;;;9.99;100.00;99502.41;5035653;28;20055;-52
2022/10/21 04:52:30;;;;;;;10.68;3.75;;;;;;;10.02;100.00;99481.63;5036861;28;20390;-54
2022/10/21 04:54:55;;;;;;;8.65;3.42;;;;;;;10.07;100.00;99473.06;5033779;28;20036;-51
2022/10/21 04:57:21;;;;;;;9.52;3.75;;;;;;;10.10;100.00;99477.94;5033994;28;20052;-51
2022/10/21 04:59:46;;;;;;;4.38;3.63;;;;;;;10.15;100.00;99467.50;5044905;28;20423;-49
2022/10/21 05:02:12;;;;;;;3.70;2.40;;;;;;;10.15;100.00;99474.66;5041667;28;20050;-51
2022/10/21 05:04:38;;;;;;;4.10;2.90;;;;;;;10.14;100.00;99460.56;5041506;28;20028;-53
2022/10/21 05:07:03;;;;;;;8.48;4.57;;;;;;;10.16;100.00;99470.97;5037077;28;20033;-49
2022/10/21 05:09:28;;;;;;;6.43;3.58;;;;;;;10.26;100.00;99476.59;5037668;28;20037;-50
2022/10/21 05:11:54;;;;;;;12.57;5.90;;;;;;;10.25;100.00;99469.69;5039400;28;20391;-51
2022/10/21 05:14:19;;;;;;;11.77;5.28;;;;;;;10.35;100.00;99471.88;5041582;28;20032;-48
2022/10/21 05:16:44;;;;;;;16.33;7.10;;;;;;;10.55;100.00;99475.22;5045376;28;20068;-50
2022/10/21 05:19:10;;;;;;;7.85;5.05;;;;;;;10.67;100.00;99473.50;5037660;28;20037;-48
2022/10/21 05:21:36;;;;;;;17.08;8.40;;;;;;;10.72;100.00;99464.91;5037564;28;20446;-51
2022/10/21 05:24:01;;;;;;;18.50;7.72;;;;;;;10.77;100.00;99473.03;5042277;28;20044;-49
2022/10/21 05:26:27;;;;;;;15.68;8.18;;;;;;;10.86;100.00;99462.94;5043794;28;20083;-54
2022/10/21 05:28:53;;;;;;;17.50;7.38;;;;;;;10.91;100.00;99477.16;5042884;28;20241;-49
2022/10/21 05:31:18;;;;;;;20.38;7.68;;;;;;;10.92;100.00;99485.97;5050160;28;20017;-51
2022/10/21 05:33:44;;;;;;;19.83;8.57;;;;;;;11.00;100.00;99471.59;5035470;28;20041;-53
2022/10/21 05:36:09;;;;;;;14.65;7.53;;;;;;;11.01;100.00;99474.03;5044244;28;20026;-51
2022/10/21 05:38:35;;;;;;;11.10;6.90;;;;;;;11.03;100.00;99473.81;5038729;28;20037;-52
2022/10/21 05:41:00;;;;;;;11.43;7.97;;;;;;;11.09;100.00;99465.78;5042590;28;20033;-48
2022/10/21 05:43:29;;;;;;;13.45;7.13;;;;;;;11.16;100.00;99463.06;5033649;28;20075;-50
2022/10/21 05:45:55;;;;;;;13.95;7.10;;;;;;;11.16;100.00;99464.91;5038548;28;20375;-50
2022/10/21 05:48:21;;;;;;;12.48;7.85;;;;;;;11.21;100.00;99459.78;5034754;28;20033;-50
2022/10/21 05:50:47;;;;;;;23.83;8.90;;;;;;;11.26;100.00;99463.38;5032972;28;20506;-49
2022/10/21 05:53:13;;;;;;;21.73;9.77;;;;;;;11.28;100.00;99457.84;5041472;28;20116;-52
2022/10/21 05:55:38;;;;;;;11.48;6.45;;;;;;;11.33;100.00;99463.28;5035462;28;20052;-51
2022/10/21 05:58:04;;;;;;;18.50;6.97;;;;;;;11.30;100.00;99466.41;5034218;28;20051;-49
2022/10/21 06:00:29;;;;;;;20.20;7.57;;;;;;;11.33;100.00;99465.94;5038287;28;20033;-49
2022/10/21 06:02:55;;;;;;;18.92;7.22;;;;;;;11.33;100.00;99463.28;5034415;28;20391;-49
2022/10/21 06:05:20;;;;;;;13.15;7.32;;;;;;;11.32;100.00;99467.78;5031587;28;20041;-51
2022/10/21 06:07:47;;;;;;;18.08;8.13;;;;;;;11.34;100.00;99463.09;5038064;28;20037;-51
2022/10/21 06:10:12;;;;;;;12.82;6.47;;;;;;;11.35;100.00;99455.94;5030543;28;20025;-50
2022/10/21 06:12:38;;;;;;;12.80;6.45;;;;;;;11.44;100.00;99448.50;5034290;28;20042;-51
2022/10/21 06:15:04;;;;;;;11.27;5.88;;;;;;;11.49;100.00;99454.75;5029620;28;20066;-49
2022/10/21 06:17:30;;;;;;;13.52;6.63;;;;;;;11.55;100.00;99442.44;5037079;28;20501;-52
2022/10/21 06:19:55;;;;;;;16.30;6.32;;;;;;;11.56;100.00;99441.41;5034812;28;20021;-52
2022/10/21 06:22:20;;;;;;;10.30;5.82;;;;;;;11.58;100.00;99436.69;5033274;28;20462;-51
2022/10/21 06:24:46;;;;;;;24.55;8.20;;;;;;;11.62;100.00;99445.03;5034114;28;20447;-51
2022/10/21 06:27:12;;;;;;;10.15;5.63;;;;;;;11.65;100.00;99457.84;5037433;28;20025;-51
2022/10/21 06:29:37;;;;;;;11.77;6.38;;;;;;;11.66;100.00;99454.97;5042209;28;20112;-55
2022/10/21 06:32:03;;;;;;;13.15;6.18;;;;;;;11.66;100.00;99462.91;5039846;28;20104;-51
2022/10/21 06:34:28;;;;;;;14.18;7.15;;;;;;;11.72;100.00;99462.06;5041592;28;20051;-51
2022/10/21 06:36:54;;;;;;;13.00;5.82;;;;;;;11.74;100.00;99462.63;5045707;28;20100;-50
2022/10/21 06:39:19;;;;;;;15.02;6.20;;;;;;;11.78;100.00;99463.81;5040881;28;20335;-51
2022/10/21 06:41:44;;;;;;;12.25;6.55;;;;;;;11.77;100.00;99456.88;5039882;28;20067;-51
2022/10/21 06:44:10;;;;;;;13.52;6.63;;;;;;;11.80;100.00;99471.56;5037000;28;20562;-50
2022/10/21 06:46:35;;;;;;;8.77;5.55;;;;;;;11.82;100.00;99466.81;5032494;28;20029;-51
2022/10/21 06:49:01;;;;;;;10.13;5.70;;;;;;;11.87;100.00;99469.63;5041505;28;20100;-49
2022/10/21 06:51:28;;;;;;;20.73;7.32;;;;;;;11.91;100.00;99465.50;5034911;28;20037;-50
2022/10/21 06:53:55;;;;;;;10.70;6.45;;;;;;;11.91;100.00;99493.94;5040452;28;20111;-51
2022/10/21 06:56:22;;;;;;;10.38;7.00;;;;;;;11.96;100.00;99486.09;5041796;28;20379;-50
2022/10/21 06:58:48;;;;;;;14.48;8.30;;;;;;;11.98;100.00;99494.66;5035544;28;20120;-51
2022/10/21 07:01:20;;;;;;;19.30;7.10;;;;;;;12.02;100.00;99495.81;5034159;28;20401;-54
2022/10/21 07:03:45;;;;;;;13.70;7.43;;;;;;;12.07;100.00;99501.25;5033569;28;20043;-51
2022/10/21 07:06:11;;;;;;;12.75;6.55;;;;;;;12.15;100.00;99502.81;5032382;28;20037;-52
2022/10/21 07:08:36;;;;;;;16.67;7.30;;;;;;;12.19;100.00;99502.13;5037682;28;20025;-51
2022/10/21 07:11:03;;;;;;;9.45;6.07;;;;;;;12.26;100.00;99496.72;5035521;28;20056;-49
2022/10/21 07:13:28;;;;;;;9.68;6.95;;;;;;;12.28;100.00;99504.47;5034011;28;20040;-50
2022/10/21 07:16:13;;;;;;;10.43;6.20;;;;;;;12.30;100.00;99511.19;5040449;28;20044;-51
2022/10/21 07:18:39;;;;;;;9.27;5.13;;;;;;;12.35;100.00;99513.16;5030048;28;20026;-51
2022/10/21 07:21:07;;;;;;;11.80;6.50;;;;;;;12.40;100.00;99514.09;5029393;28;20474;-49
2022/10/21 07:23:33;;;;;;;12.82;5.88;;;;;;;12.43;100.00;99518.97;5026629;28;20037;-54
2022/10/21 07:26:02;;;;;;;8.75;5.28;;;;;;;12.50;100.00;99515.41;5034405;28;20126;-50
2022/10/21 07:28:28;;;;;;;8.68;5.38;;;;;;;12.51;100.00;99515.19;5042127;28;20393;-53
2022/10/21 07:30:53;;;;;;;7.85;5.70;;;;;;;12.60;100.00;99515.69;5029524;28;20025;-50
2022/10/21 07:33:19;;;;;;;9.38;4.70;;;;;;;12.66;100.00;99517.41;5031461;28;20034;-52
2022/10/21 07:35:44;;;;;;;6.53;4.65;;;;;;;12.71;100.00;99517.53;5034026;28;20521;-49
2022/10/21 07:38:11;;;;;;;8.48;5.85;;;;;;;12.79;100.00;99529.69;5038634;28;20105;-49
2022/10/21 07:40:43;;;;;;;9.60;4.93;;;;;;;12.84;100.00;99525.31;5037115;28;20053;-50
2022/10/21 07:43:09;;;;;;;12.40;5.57;;;;;;;12.89;100.00;99535.28;5041087;28;20021;-50
2022/10/21 07:45:41;;;;;;;5.32;4.15;;;;;;;12.97;100.00;99528.81;5041537;28;20040;-49
2022/10/21 07:48:07;;;;;;;;;;;;;;;13.00;100.00;99541.66;5039613;28;20034;-53
2022/10/21 07:50:32;;;;;;;12.40;4.20;;;;;;;12.99;100.00;99532.84;5041260;28;20386;-54
2022/10/21 07:52:57;;;;;;;8.40;4.22;;;;;;;13.04;100.00;99534.84;5041488;28;20036;-51
2022/10/21 07:55:23;;;;;;;11.20;5.75;;;;;;;13.09;100.00;99533.09;5043071;28;20071;-52
2022/10/21 07:57:48;;;;;;;7.38;3.75;;;;;;;13.13;100.00;99532.63;5038061;28;20105;-50
2022/10/21 08:00:14;;;;;;;7.45;3.45;;;;;;;13.13;100.00;99525.47;5046978;28;20036;-52
2022/10/21 08:02:40;;;;;;;4.65;3.63;;;;;;;13.15;100.00;99541.19;5042871;28;20061;-52
2022/10/21 08:05:06;;;;;;;13.23;5.22;;;;;;;13.18;100.00;99525.56;5045032;28;20106;-52
2022/10/21 08:07:32;;;;;;;11.05;5.43;;;;;;;13.22;100.00;99531.25;5041004;28;20466;-50
2022/10/21 08:09:58;;;;;;;5.63;3.38;;;;;;;13.22;100.00;99532.06;5040352;28;20037;-52
2022/10/21 08:12:23;;;;;;;6.57;2.80;;;;;;;13.24;100.00;99532.66;5048396;28;20390;-51
2022/10/21 08:14:49;;;;;;;10.77;3.30;;;;;;;13.30;100.00;99533.59;5047807;28;20093;-53
2022/10/21 08:17:15;;;;;;;8.43;3.80;;;;;;;13.30;100.00;99534.41;5040581;28;20044;-51
2022/10/21 08:19:40;;;;;;;6.70;3.45;;;;;;;13.35;100.00;99535.56;5032756;28;20029;-52
2022/10/21 08:22:06;;;;;;;8.38;4.00;;;;;;;13.42;100.00;99536.25;5038591;28;20060;-50
2022/10/21 08:24:31;;;;;;;7.93;3.60;;;;;;;13.52;100.00;99526.63;5044587;28;20159;-49
2022/10/21 08:26:57;;;;;;;5.55;2.45;;;;;;;13.60;100.00;99532.63;5041377;28;20037;-47
2022/10/21 08:29:22;;;;;;;5.28;2.75;;;;;;;13.68;100.00;99525.13;5038393;28;20475;-53
2022/10/21 08:31:47;;;;;;;9.77;4.05;;;;;;;13.77;100.00;99535.41;5038148;28;20079;-48
2022/10/21 08:34:13;;;;;;;9.20;3.83;;;;;;;13.79;100.00;99528.00;5039627;28;20040;-49
2022/10/21 08:36:39;;;;;;;4.70;2.20;;;;;;;13.78;100.00;99524.50;5041525;28;20132;-48
2022/10/21 08:39:05;;;;;;;8.43;2.40;;;;;;;13.74;100.00;99521.50;5035982;28;20557;-49
2022/10/21 08:41:38;;;;;;;7.60;2.40;;;;;;;13.70;100.00;99525.66;5038835;28;20117;-51
2022/10/21 08:44:26;;;;;;;13.52;2.78;;;;;;;13.72;100.00;99525.44;5042286;28;20490;-51
2022/10/21 08:47:00;;;;;;;8.00;3.28;;;;;;;13.79;100.00;99528.00;5039215;28;20035;-51
2022/10/21 08:49:31;;;;;;;10.50;2.85;;;;;;;13.88;100.00;99526.56;5036161;28;20033;-52
2022/10/21 08:52:05;;;;;;;8.93;2.45;;;;;;;13.96;100.00;99518.19;5038344;28;20048;-50
2022/10/21 08:54:56;;;;;;;4.38;2.13;;;;;;;14.05;100.00;99530.13;5034626;28;20041;-53
2022/10/21 08:57:22;;;;;;;5.22;1.42;;;;;;;14.23;100.00;99520.31;5034256;28;20033;-50
2022/10/21 08:59:47;;;;;;;10.00;2.53;;;;;;;14.51;100.00;99522.97;5039545;28;20536;-50
2022/10/21 09:02:32;;;;;;;7.30;1.55;;;;;;;14.68;100.00;99511.53;5036425;28;20707;-49
2022/10/21 09:05:15;;;;;;;6.40;2.17;;;;;;;14.78;100.00;99522.38;5035800;28;20044;-49
2022/10/21 09:07:59;;;;;;;5.65;1.27;;;;;;;14.68;100.00;99524.88;5037134;28;20108;-53
2022/10/21 09:10:54;;;;;;;9.50;2.00;;;;;;;14.90;100.00;99514.31;5038072;28;20024;-49
2022/10/21 09:13:28;;;;;;;7.65;1.70;;;;;;;15.06;100.00;99502.81;5027035;28;20045;-49
2022/10/21 09:16:11;;;;;;;8.32;1.95;;;;;;;15.19;100.00;99505.13;5038686;28;20025;-54
2022/10/21 09:18:51;;;;;;;7.70;1.58;;;;;;;15.18;100.00;99505.38;5038065;28;20029;-53
2022/10/21 09:21:44;;;;;;;8.98;2.28;;;;;;;15.14;100.00;99504.25;5039810;28;20175;-50
2022/10/21 09:24:34;;;;;;;11.25;2.20;;;;;;;14.95;100.00;99501.84;5038511;28;20046;-53
2022/10/21 09:27:02;;;;;;;4.18;1.30;;;;;;;14.97;100.00;99493.59;5036970;28;20156;-49
2022/10/21 09:29:35;;;;;;;9.68;2.40;;;;;;;14.93;100.00;99482.59;5039562;28;20029;-49
2022/10/21 09:32:12;;;;;;;5.45;1.30;;;;;;;14.87;100.00;99474.75;5042395;28;20033;-50
2022/10/21 09:34:46;;;;;;;6.72;1.10;;;;;;;14.85;100.00;99464.31;5029911;28;20087;-51
2022/10/21 09:37:21;;;;;;;11.18;1.67;;;;;;;14.84;100.00;99462.69;5035585;28;20060;-50
2022/10/21 09:39:54;;;;;;;8.95;3.20;;;;;;;14.79;100.00;99463.44;5034173;28;20036;-48
2022/10/21 09:42:20;;;;;;;4.75;1.05;;;;;;;14.75;100.00;99453.50;5038752;28;20057;-50
2022/10/21 09:44:45;;;;;;;8.00;1.40;;;;;;;14.72;100.00;99459.31;5036360;28;20060;-51
2022/10/21 09:47:23;;;;;;;8.18;0.88;;;;;;;14.72;100.00;99456.66;5032300;28;20250;-49
2022/10/21 09:49:53;;;;;;;12.57;1.90;;;;;;;14.66;100.00;99439.75;5039546;28;20070;-54
2022/10/21 09:52:20;;;;;;;13.65;1.30;;;;;;;14.61;100.00;99440.50;5039402;28;20514;-49
2022/10/21 09:54:47;;;;;;;8.20;1.70;;;;;;;14.61;100.00;99437.81;5036656;28;20036;-48
2022/10/21 09:57:13;;;;;;;9.15;1.02;;;;;;;14.65;100.00;99442.66;5033026;28;20075;-48
2022/10/21 09:59:58;;;;;;;4.40;1.10;;;;;;;14.70;100.00;99451.56;5036877;28;20033;-49
2022/10/21 10:02:36;;;;;;;6.60;1.67;;;;;;;14.77;100.00;99446.06;5040024;28;20394;-49
2022/10/21 10:05:42;;;;;;;15.55;2.78;;;;;;;14.80;100.00;99445.56;5040650;28;20029;-49
2022/10/21 10:08:32;;;;;;;8.65;1.33;;;;;;;14.85;100.00;99445.66;5035690;28;20029;-50
2022/10/21 10:11:03;;;;;;;13.15;1.25;;;;;;;14.92;100.00;99440.13;5030754;28;20359;-51
2022/10/21 10:13:30;;;;;;;;;;;;;;;15.00;100.00;99440.53;5036269;28;20173;-51
2022/10/21 10:16:14;;;;;;;5.00;1.40;;;;;;;15.14;100.00;99437.50;5037577;28;19971;-53
2022/10/21 10:18:40;;;;;;;6.30;1.65;;;;;;;15.17;100.00;99429.81;5037126;28;20025;-48
2022/10/21 10:21:10;;;;;;;8.65;1.05;;;;;;;15.12;100.00;99428.94;5037232;28;20029;-54
2022/10/21 10:23:54;;;;;;;4.10;0.60;;;;;;;15.13;100.00;99428.69;5033495;28;20076;-56
2022/10/21 10:26:21;;;;;;;6.70;1.15;;;;;;;15.15;100.00;99425.78;5028032;28;20087;-56
2022/10/21 10:28:50;;;;;;;8.93;0.52;;;;;;;15.24;100.00;99425.09;5032487;28;20065;-58
2022/10/21 10:31:23;;;;;;;7.18;1.92;;;;;;;15.38;100.00;99425.53;5034787;28;20105;-56
2022/10/21 10:33:54;;;;;;;6.75;1.23;;;;;;;15.53;100.00;99424.91;5039158;28;20132;-51
2022/10/21 10:36:35;;;;;;;2.70;0.55;;;;;;;15.59;100.00;99423.09;5038144;28;20052;-54
2022/10/21 10:39:03;;;;;;;5.30;2.10;;;;;;;15.61;100.00;99413.00;5034082;28;20039;-55
2022/10/21 10:41:33;;;;;;;4.03;0.95;;;;;;;15.62;100.00;99417.28;5035533;28;20035;-56
2022/10/21 10:43:59;;;;;;;10.57;1.52;;;;;;;15.59;100.00;99412.44;5038757;28;20052;-56
2022/10/21 10:46:28;;;;;;;10.13;0.98;;;;;;;15.65;100.00;99406.91;5035449;28;20056;-56
2022/10/21 10:48:56;;;;;;;5.57;1.27;;;;;;;15.79;100.00;99399.31;5036870;28;20501;-55
2022/10/21 10:51:26;;;;;;;5.55;1.40;;;;;;;15.78;100.00;99389.69;5037960;28;20033;-54
2022/10/21 10:53:59;;;;;;;10.65;1.85;;;;;;;15.63;100.00;99384.97;5039346;28;20029;-55
2022/10/21 10:56:24;;;;;;;3.90;1.35;;;;;;;15.46;100.00;99377.03;5037173;28;20056;-54
2022/10/21 10:59:00;;;;;;;1.90;0.60;;;;;;;15.52;100.00;99385.91;5037936;28;20524;-57
2022/10/21 11:01:51;;;;;;;1.38;0.95;;;;;;;15.85;100.00;99398.34;5037220;28;20087;-55
2022/10/21 11:04:29;;;;;;;4.60;0.63;;;;;;;16.02;100.00;99390.19;5033417;28;20036;-55
2022/10/21 11:07:12;;;;;;;5.93;0.75;;;;;;;15.99;100.00;99381.88;5032353;28;20039;-52
2022/10/21 11:09:38;;;;;;;4.40;0.55;;;;;;;16.08;100.00;99380.34;5037664;28;20095;-53
2022/10/21 11:12:12;;;;;;;6.13;1.25;;;;;;;16.13;100.00;99372.38;5032493;28;20084;-53
2022/10/21 11:14:38;;;;;;;5.70;1.40;;;;;;;16.09;100.00;99371.28;5033143;28;20122;-55
2022/10/21 11:17:14;;;;;;;5.28;1.83;;;;;;;16.09;100.00;99376.63;5031043;28;20521;-56
2022/10/21 11:20:02;;;;;;;4.45;1.05;;;;;;;16.06;100.00;99385.16;5033945;28;20487;-53
2022/10/21 11:23:03;;;;;;;5.20;1.20;;;;;;;15.96;100.00;99369.84;5041741;28;20037;-55
2022/10/21 11:25:31;;;;;;;4.03;0.83;;;;;;;15.95;100.00;99365.53;5034355;28;20025;-54
2022/10/21 11:28:11;;;;;;;7.07;1.70;;;;;;;15.92;100.00;99352.69;5040902;28;20789;-51
2022/10/21 11:30:57;;;;;;;9.77;1.98;;;;;;;15.97;100.00;99365.28;5038644;28;20029;-50
2022/10/21 11:33:35;;;;;;;7.63;1.85;;;;;;;16.01;100.00;99374.44;5034252;28;20029;-53
2022/10/21 11:36:11;;;;;;;12.23;1.08;;;;;;;15.95;100.00;99367.41;5032524;28;20079;-51
2022/10/21 11:38:53;;;;;;;6.80;1.67;;;;;;;15.84;100.00;99356.59;5032376;28;20340;-54